Time;durP1;ratioP1;P1;durP2;ratioP2;P2;SDS_P1;SDS_P2;PMS_P1;PMS_P2;Temp;Humidity;BMP_temperature;BMP_pressure;BME280_temperature;BME280_humidity;BME280_pressure;Samples;Min_cycle;Max_cycle;Signal;HPM_P1;HPM_P2
2022/10/12 00:00:04;;;;;;;;;;;;;;;23.85;46.35;94753.53;4993036;28;9009;-60
2022/10/12 00:03:00;;;;;;;;;;;;;;;23.86;46.04;94748.75;4994828;28;7397;-60
2022/10/12 00:05:28;;;;;;;;;;;;;;;23.84;46.20;94751.25;4915051;29;8458;-61
2022/10/12 00:07:54;;;;;;;;;;;;;;;23.86;46.29;94751.50;4931544;29;8183;-60
2022/10/12 00:10:25;;;;;;;;;;;;;;;23.84;46.74;94752.00;4915131;29;7483;-60
2022/10/12 00:12:51;;;;;;;;;;;;;;;23.86;45.60;94751.50;4924429;29;9471;-59
2022/10/12 00:15:26;;;;;;;;;;;;;;;23.85;45.92;94752.78;4909777;29;7364;-60
2022/10/12 00:17:53;;;;;;;;;;;;;;;23.87;46.18;94758.53;4901125;29;7257;-59
2022/10/12 00:20:47;;;;;;;;;;;;;;;23.85;46.11;94756.28;4920025;29;7291;-60
2022/10/12 00:23:14;;;;;;;;;;;;;;;23.85;45.67;94756.28;4924186;29;7399;-60
2022/10/12 00:25:50;;;;;;;;;;;;;;;23.84;45.91;94756.75;4923340;28;7215;-60
2022/10/12 00:28:17;;;;;;;;;;;;;;;23.84;45.92;94754.00;4983312;28;9307;-60
2022/10/12 00:30:43;;;;;;;;;;;;;;;23.84;46.36;94751.25;4980179;28;6996;-60
2022/10/12 00:33:12;;;;;;;;;;;;;;;23.84;45.60;94760.25;4999792;28;7059;-60
2022/10/12 00:36:24;;;;;;;;;;;;;;;23.85;45.76;94766.50;4975237;28;9535;-60
2022/10/12 00:39:05;;;;;;;;;;;;;;;23.84;45.83;94759.50;4971459;28;6993;-60
2022/10/12 00:41:34;;;;;;;;;;;;;;;23.83;46.26;94764.25;5011137;28;8644;-60
2022/10/12 00:44:01;;;;;;;;;;;;;;;23.82;46.09;94760.00;5090825;28;7211;-60
2022/10/12 00:46:35;;;;;;;;;;;;;;;23.82;45.95;94764.72;5071697;28;7058;-60
2022/10/12 00:49:26;;;;;;;;;;;;;;;23.82;45.92;94754.50;5074060;28;6996;-60
2022/10/12 00:52:03;;;;;;;;;;;;;;;23.82;45.77;94756.47;5073399;28;7250;-60
2022/10/12 00:54:41;;;;;;;;;;;;;;;23.82;45.97;94759.22;5075536;28;9038;-60
2022/10/12 00:57:11;;;;;;;;;;;;;;;23.81;45.77;94761.25;5083858;28;7172;-60
2022/10/12 00:59:45;;;;;;;;;;;;;;;23.82;46.41;94761.97;5090407;28;7122;-60
2022/10/12 01:02:12;;;;;;;;;;;;;;;23.82;45.78;94761.97;5074390;28;7241;-60
2022/10/12 01:04:48;;;;;;;;;;;;;;;23.81;45.65;94760.50;5085324;28;7298;-60
2022/10/12 01:07:23;;;;;;;;;;;;;;;23.81;45.58;94765.97;5092911;28;7889;-60
2022/10/12 01:10:27;;;;;;;;;;;;;;;23.81;45.86;94761.25;5091759;28;9935;-59
2022/10/12 01:13:14;;;;;;;;;;;;;;;23.81;46.14;94763.22;5002994;28;7238;-60
2022/10/12 01:15:58;;;;;;;;;;;;;;;23.80;45.68;94761.72;4994272;28;7648;-60
2022/10/12 01:18:44;;;;;;;;;;;;;;;23.80;45.84;94764.47;5009709;28;7102;-60
2022/10/12 01:21:28;;;;;;;;;;;;;;;23.79;46.20;94765.72;4997462;28;6975;-60
2022/10/12 01:24:31;;;;;;;;;;;;;;;23.78;45.91;94762.22;5009965;28;8886;-60
2022/10/12 01:27:23;;;;;;;;;;;;;;;23.78;46.10;94762.22;4995083;28;7506;-60
2022/10/12 01:30:06;;;;;;;;;;;;;;;23.78;45.87;94758.72;4994013;28;7703;-60
2022/10/12 01:32:55;;;;;;;;;;;;;;;23.79;46.16;94760.97;5010312;28;7143;-59
2022/10/12 01:35:56;;;;;;;;;;;;;;;23.78;45.95;94758.72;4993919;28;7108;-60
2022/10/12 01:38:58;;;;;;;;;;;;;;;23.79;45.68;94760.22;5007982;28;7221;-60
2022/10/12 01:41:48;;;;;;;;;;;;;;;23.78;46.12;94767.72;5003467;28;7140;-60
2022/10/12 01:44:24;;;;;;;;;;;;;;;23.78;45.97;94772.44;5067952;28;9834;-60
2022/10/12 01:46:57;;;;;;;;;;;;;;;23.76;45.97;94763.94;5090786;28;9237;-60
2022/10/12 01:49:40;;;;;;;;;;;;;;;23.77;45.80;94770.94;5074399;28;7074;-60
2022/10/12 01:52:46;;;;;;;;;;;;;;;23.77;46.08;94768.22;5090579;28;8761;-60
2022/10/12 01:55:28;;;;;;;;;;;;;;;23.77;46.37;94776.44;5078922;28;8582;-60
2022/10/12 01:58:12;;;;;;;;;;;;;;;23.76;46.11;94774.94;5080787;28;6987;-60
2022/10/12 02:01:02;;;;;;;;;;;;;;;23.77;45.94;94770.94;5078193;28;7009;-60
2022/10/12 02:03:55;;;;;;;;;;;;;;;23.77;46.15;94773.69;5073153;28;7111;-60
2022/10/12 02:06:36;;;;;;;;;;;;;;;23.76;45.88;94777.69;5094949;28;9110;-60
2022/10/12 02:09:22;;;;;;;;;;;;;;;23.76;46.26;94778.44;5077962;28;7263;-60
2022/10/12 02:11:56;;;;;;;;;;;;;;;23.73;45.84;94781.38;5075078;28;8920;-60
2022/10/12 02:14:52;;;;;;;;;;;;;;;23.76;45.82;94785.91;5078099;28;7280;-60
2022/10/12 02:17:36;;;;;;;;;;;;;;;23.76;45.80;94780.41;5084684;28;9105;-61
2022/10/12 02:20:04;;;;;;;;;;;;;;;23.74;46.21;94777.41;5095377;28;7324;-61
2022/10/12 02:22:36;;;;;;;;;;;;;;;23.74;46.00;94777.41;5073434;28;7078;-61
2022/10/12 02:25:09;;;;;;;;;;;;;;;23.74;45.98;94766.44;5055181;28;9082;-61
2022/10/12 02:28:04;;;;;;;;;;;;;;;23.73;45.96;94759.41;5073735;28;8628;-61
2022/10/12 02:30:37;;;;;;;;;;;;;;;23.73;45.68;94764.91;5092472;28;9739;-61
2022/10/12 02:33:36;;;;;;;;;;;;;;;23.73;46.28;94770.41;5094686;28;6997;-61
2022/10/12 02:36:24;;;;;;;;;;;;;;;23.72;46.07;94764.19;4994286;28;6984;-61
2022/10/12 02:39:18;;;;;;;;;;;;;;;23.73;46.18;94765.66;4981162;28;7014;-61
2022/10/12 02:41:55;;;;;;;;;;;;;;;23.71;46.35;94762.66;4993125;28;7388;-62
2022/10/12 02:44:35;;;;;;;;;;;;;;;23.73;46.54;94765.66;4993130;28;7460;-60
2022/10/12 02:47:07;;;;;;;;;;;;;;;23.74;45.98;94766.44;4993080;28;8447;-61
2022/10/12 02:49:46;;;;;;;;;;;;;;;23.72;45.52;94769.66;4992956;28;7326;-60
2022/10/12 02:52:16;;;;;;;;;;;;;;;23.73;46.42;94764.91;4992889;28;9084;-61
2022/10/12 02:54:41;;;;;;;;;;;;;;;23.73;45.73;94767.66;4992881;28;7266;-60
2022/10/12 02:57:10;;;;;;;;;;;;;;;23.71;45.83;94768.16;4992984;28;9039;-61
2022/10/12 02:59:36;;;;;;;;;;;;;;;23.71;46.19;94767.41;4993037;28;9212;-61
2022/10/12 03:02:02;;;;;;;;;;;;;;;23.70;46.30;94766.66;4991648;28;9421;-61
2022/10/12 03:04:27;;;;;;;;;;;;;;;23.72;46.47;94769.66;4977968;28;8677;-61
2022/10/12 03:06:53;;;;;;;;;;;;;;;23.71;45.84;94764.66;5005220;28;7323;-61
2022/10/12 03:09:35;;;;;;;;;;;;;;;23.70;46.07;94766.66;4976556;28;8290;-61
2022/10/12 03:12:11;;;;;;;;;;;;;;;23.70;45.87;94768.66;4996216;28;7287;-60
2022/10/12 03:14:41;;;;;;;;;;;;;;;23.70;45.94;94772.16;5076335;28;9320;-61
2022/10/12 03:17:11;;;;;;;;;;;;;;;23.71;45.60;94764.66;5076457;28;7277;-61
2022/10/12 03:19:39;;;;;;;;;;;;;;;23.69;46.03;94776.13;5071692;28;8575;-60
2022/10/12 03:22:10;;;;;;;;;;;;;;;23.70;45.59;94772.16;5072732;28;7124;-61
2022/10/12 03:24:38;;;;;;;;;;;;;;;23.71;46.18;94773.66;5075793;28;7420;-60
2022/10/12 03:27:13;;;;;;;;;;;;;;;23.70;46.37;94768.66;5074752;28;9413;-61
2022/10/12 03:29:45;;;;;;;;;;;;;;;23.70;45.92;94768.66;5074116;28;7443;-60
2022/10/12 03:32:28;;;;;;;;;;;;;;;23.69;45.82;94767.88;5075471;28;9002;-61
2022/10/12 03:34:53;;;;;;;;;;;;;;;23.68;46.07;94768.38;5093986;28;9094;-60
2022/10/12 03:37:21;;;;;;;;;;;;;;;23.69;46.25;94767.88;5076120;28;7960;-61
2022/10/12 03:39:50;;;;;;;;;;;;;;;23.69;46.06;94772.63;5085791;28;9249;-60
2022/10/12 03:42:16;;;;;;;;;;;;;;;23.72;45.70;94771.66;5066780;28;7303;-61
2022/10/12 03:44:42;;;;;;;;;;;;;;;23.70;46.19;94771.41;5075322;28;7052;-61
2022/10/12 03:47:10;;;;;;;;;;;;;;;23.69;45.92;94778.88;5057369;28;7256;-60
2022/10/12 03:49:40;;;;;;;;;;;;;;;23.69;46.08;94780.88;5064375;28;7251;-61
2022/10/12 03:52:12;;;;;;;;;;;;;;;23.68;46.16;94774.63;5075625;28;9000;-60
2022/10/12 03:54:38;;;;;;;;;;;;;;;23.68;46.24;94779.38;5093868;28;6975;-61
2022/10/12 03:57:03;;;;;;;;;;;;;;;23.66;46.14;94770.88;5075907;28;9024;-61
2022/10/12 03:59:29;;;;;;;;;;;;;;;23.68;45.65;94782.88;5074954;28;7318;-61
2022/10/12 04:02:00;;;;;;;;;;;;;;;23.69;46.03;94772.63;5075918;28;7630;-61
2022/10/12 04:04:43;;;;;;;;;;;;;;;23.68;46.07;94771.91;5076065;28;9002;-61
2022/10/12 04:07:09;;;;;;;;;;;;;;;23.66;45.79;94771.59;5083991;28;6987;-61
2022/10/12 04:09:36;;;;;;;;;;;;;;;23.68;46.13;94773.88;5069329;28;8538;-61
2022/10/12 04:12:10;;;;;;;;;;;;;;;23.68;46.08;94771.13;5092232;28;7047;-60
2022/10/12 04:14:41;;;;;;;;;;;;;;;23.68;46.10;94773.88;5076720;28;7506;-61
2022/10/12 04:17:15;;;;;;;;;;;;;;;23.68;46.39;94771.13;5069882;28;8971;-61
2022/10/12 04:19:42;;;;;;;;;;;;;;;23.65;46.04;94769.34;5089647;28;9381;-61
2022/10/12 04:22:10;;;;;;;;;;;;;;;23.66;46.16;94777.09;5075442;28;7235;-61
2022/10/12 04:24:40;;;;;;;;;;;;;;;23.67;46.39;94784.09;5091677;28;7018;-61
2022/10/12 04:27:13;;;;;;;;;;;;;;;23.68;46.19;94780.13;5074595;28;7193;-61
2022/10/12 04:29:40;;;;;;;;;;;;;;;23.67;45.68;94792.34;5073674;28;7937;-61
2022/10/12 04:32:11;;;;;;;;;;;;;;;23.66;45.88;94779.84;5063420;28;7295;-61
2022/10/12 04:34:37;;;;;;;;;;;;;;;23.65;46.26;94783.84;5060436;28;9240;-61
2022/10/12 04:37:05;;;;;;;;;;;;;;;23.66;46.08;94792.84;5090048;28;9212;-60
2022/10/12 04:39:31;;;;;;;;;;;;;;;23.67;46.06;94784.09;5072905;28;8690;-61
2022/10/12 04:42:05;;;;;;;;;;;;;;;23.67;45.96;94783.34;5074640;28;7146;-61
2022/10/12 04:44:36;;;;;;;;;;;;;;;23.66;46.22;94788.09;5092450;28;7254;-61
2022/10/12 04:47:08;;;;;;;;;;;;;;;23.66;46.35;94784.59;5071501;28;7052;-61
2022/10/12 04:49:34;;;;;;;;;;;;;;;23.66;45.76;94790.09;5074238;28;7457;-61
2022/10/12 04:52:02;;;;;;;;;;;;;;;23.66;46.25;94781.84;5075209;28;7051;-61
2022/10/12 04:54:27;;;;;;;;;;;;;;;23.67;46.19;94786.84;5081298;28;7001;-61
2022/10/12 04:56:53;;;;;;;;;;;;;;;23.66;45.68;94781.84;5081080;28;7168;-61
2022/10/12 04:59:19;;;;;;;;;;;;;;;23.67;46.08;94778.63;5090841;28;7226;-61
2022/10/12 05:01:45;;;;;;;;;;;;;;;23.67;46.30;94783.34;5074169;28;7204;-60
2022/10/12 05:04:11;;;;;;;;;;;;;;;23.65;46.28;94786.59;5074689;28;7616;-61
2022/10/12 05:06:43;;;;;;;;;;;;;;;23.67;46.28;94791.59;5065044;28;7213;-61
2022/10/12 05:09:34;;;;;;;;;;;;;;;23.67;46.13;94788.84;5073856;28;7244;-61
2022/10/12 05:12:08;;;;;;;;;;;;;;;23.65;45.94;94791.31;5074411;28;7915;-62
2022/10/12 05:14:37;;;;;;;;;;;;;;;23.64;46.35;94789.84;5075557;28;7237;-60
2022/10/12 05:17:11;;;;;;;;;;;;;;;23.64;46.00;94792.59;5090390;28;9670;-60
2022/10/12 05:19:39;;;;;;;;;;;;;;;23.65;45.95;94785.84;5091999;28;8428;-61
2022/10/12 05:22:44;;;;;;;;;;;;;;;23.64;45.88;94796.06;5065389;28;9385;-61
2022/10/12 05:25:18;;;;;;;;;;;;;;;23.63;46.41;94789.06;4974333;28;7350;-61
2022/10/12 05:28:14;;;;;;;;;;;;;;;23.65;46.05;94785.84;4979201;28;9036;-61
2022/10/12 05:30:58;;;;;;;;;;;;;;;23.63;45.86;94785.56;5022632;28;7159;-61
2022/10/12 05:33:33;;;;;;;;;;;;;;;23.65;46.05;94796.81;4997777;28;7750;-61
2022/10/12 05:36:10;;;;;;;;;;;;;;;23.64;46.03;94790.56;4997366;28;7452;-61
2022/10/12 05:38:40;;;;;;;;;;;;;;;23.65;45.80;94788.56;5013983;28;7190;-61
2022/10/12 05:41:22;;;;;;;;;;;;;;;23.65;45.58;94786.59;5013925;28;7327;-61
2022/10/12 05:44:05;;;;;;;;;;;;;;;23.64;45.93;94790.56;4997377;28;7654;-60
2022/10/12 05:46:43;;;;;;;;;;;;;;;23.66;46.18;94788.09;5013846;28;9053;-61
2022/10/12 05:49:09;;;;;;;;;;;;;;;23.66;45.70;94793.56;5013562;28;9122;-60
2022/10/12 05:51:37;;;;;;;;;;;;;;;23.65;45.86;94792.09;4996779;28;7199;-61
2022/10/12 05:54:03;;;;;;;;;;;;;;;23.63;46.19;94785.56;5013737;28;9085;-61
2022/10/12 05:56:32;;;;;;;;;;;;;;;23.66;46.37;94792.84;5042473;28;7625;-61
2022/10/12 05:58:58;;;;;;;;;;;;;;;23.64;46.10;94784.34;5036622;28;7280;-61
2022/10/12 06:01:24;;;;;;;;;;;;;;;23.65;46.36;94783.09;5052600;28;7041;-61
2022/10/12 06:04:06;;;;;;;;;;;;;;;23.64;46.21;94784.34;5053104;28;9056;-61
2022/10/12 06:06:38;;;;;;;;;;;;;;;23.63;46.30;94785.56;5063811;28;9047;-61
2022/10/12 06:09:09;;;;;;;;;;;;;;;23.66;45.85;94784.59;5068186;28;9019;-60
2022/10/12 06:11:39;;;;;;;;;;;;;;;23.64;45.90;94787.09;5093969;28;9467;-61
2022/10/12 06:14:07;;;;;;;;;;;;;;;23.62;46.05;94784.81;5095825;28;7252;-61
2022/10/12 06:16:38;;;;;;;;;;;;;;;23.62;46.18;94789.56;5079554;28;9171;-60
2022/10/12 06:19:04;;;;;;;;;;;;;;;23.61;45.97;94788.06;5062769;28;7231;-61
2022/10/12 06:21:37;;;;;;;;;;;;;;;23.62;45.74;94790.31;5070607;28;7975;-61
2022/10/12 06:24:05;;;;;;;;;;;;;;;23.62;46.24;94787.56;5077247;28;7167;-61
2022/10/12 06:27:06;;;;;;;;;;;;;;;23.63;46.37;94799.28;5077415;28;8056;-61
2022/10/12 06:29:34;;;;;;;;;;;;;;;23.60;45.83;94798.28;5012436;28;9538;-61
2022/10/12 06:32:00;;;;;;;;;;;;;;;23.61;46.18;94797.03;5011877;28;8531;-62
2022/10/12 06:34:34;;;;;;;;;;;;;;;23.61;45.89;94801.78;5011405;28;7176;-60
2022/10/12 06:37:29;;;;;;;;;;;;;;;23.62;46.11;94801.28;4995879;28;9411;-60
2022/10/12 06:40:07;;;;;;;;;;;;;;;23.63;46.19;94808.28;4960654;28;7194;-61
2022/10/12 06:42:33;;;;;;;;;;;;;;;23.63;46.23;94802.03;4921454;28;9028;-61
2022/10/12 06:44:59;;;;;;;;;;;;;;;23.61;45.75;94804.53;4946718;28;7444;-61
2022/10/12 06:47:55;;;;;;;;;;;;;;;23.61;45.77;94801.78;4939174;28;6977;-61
2022/10/12 06:50:45;;;;;;;;;;;;;;;23.61;45.75;94801.78;4934513;29;7245;-61
2022/10/12 06:53:17;;;;;;;;;;;;;;;23.59;45.56;94798.78;4908611;29;8921;-61
2022/10/12 06:55:43;;;;;;;;;;;;;;;23.54;46.30;94794.75;4899471;29;9039;-61
2022/10/12 06:58:20;;;;;;;;;;;;;;;23.56;46.36;94806.00;4897989;29;7378;-61
2022/10/12 07:01:02;;;;;;;;;;;;;;;23.54;46.05;94800.22;4915982;29;7295;-60
2022/10/12 07:03:30;;;;;;;;;;;;;;;23.54;46.10;94796.72;4914746;29;7290;-61
2022/10/12 07:06:07;;;;;;;;;;;;;;;23.58;46.21;94802.75;4934847;28;7172;-60
2022/10/12 07:08:49;;;;;;;;;;;;;;;23.60;45.83;94805.75;4937846;28;7195;-60
2022/10/12 07:11:49;;;;;;;;;;;;;;;23.60;46.18;94806.50;4922782;29;7100;-61
2022/10/12 07:14:16;;;;;;;;;;;;;;;23.60;45.59;94805.75;4920535;29;7173;-61
2022/10/12 07:16:43;;;;;;;;;;;;;;;23.58;46.10;94802.75;4950483;28;9530;-61
2022/10/12 07:19:09;;;;;;;;;;;;;;;23.58;46.00;94809.00;4975266;28;6987;-61
2022/10/12 07:21:43;;;;;;;;;;;;;;;23.58;46.27;94810.97;4992529;28;7038;-61
2022/10/12 07:24:12;;;;;;;;;;;;;;;23.57;45.88;94806.75;4992764;28;7231;-61
2022/10/12 07:27:07;;;;;;;;;;;;;;;23.59;45.94;94812.50;5018315;28;8643;-61
2022/10/12 07:29:34;;;;;;;;;;;;;;;23.55;46.09;94811.97;5083921;28;8955;-61
2022/10/12 07:32:07;;;;;;;;;;;;;;;23.50;46.50;94815.41;5076462;28;7036;-60
2022/10/12 07:34:49;;;;;;;;;;;;;;;23.54;46.37;94813.97;5076054;28;9440;-60
2022/10/12 07:37:28;;;;;;;;;;;;;;;23.57;46.09;94810.25;5075499;28;7311;-61
2022/10/12 07:40:09;;;;;;;;;;;;;;;23.59;46.11;94813.25;5080645;28;6865;-61
2022/10/12 07:42:41;;;;;;;;;;;;;;;23.59;45.46;94816.00;5076008;28;7079;-61
2022/10/12 07:45:11;;;;;;;;;;;;;;;23.53;46.07;94806.94;5076030;28;7278;-61
2022/10/12 07:47:46;;;;;;;;;;;;;;;23.51;46.49;94809.44;5075472;28;7236;-61
2022/10/12 07:50:21;;;;;;;;;;;;;;;23.52;46.57;94815.69;5089429;28;9254;-61
2022/10/12 07:53:21;;;;;;;;;;;;;;;23.55;46.04;94820.97;5092524;28;7242;-61
2022/10/12 07:55:47;;;;;;;;;;;;;;;23.55;46.34;94815.47;5034321;28;7749;-61
2022/10/12 07:58:18;;;;;;;;;;;;;;;23.51;45.83;94820.41;5034116;28;7307;-61
2022/10/12 08:00:46;;;;;;;;;;;;;;;23.50;46.38;94815.41;5050669;28;6906;-61
2022/10/12 08:03:29;;;;;;;;;;;;;;;23.48;46.34;94818.66;5034409;28;7178;-61
2022/10/12 08:06:24;;;;;;;;;;;;;;;23.49;46.14;94816.69;5027698;28;7307;-61
2022/10/12 08:08:50;;;;;;;;;;;;;;;23.52;45.85;94821.94;5024813;28;7359;-60
2022/10/12 08:11:18;;;;;;;;;;;;;;;23.52;46.37;94821.19;5049657;28;7081;-61
2022/10/12 08:13:55;;;;;;;;;;;;;;;23.53;46.11;94825.44;5049439;28;9389;-61
2022/10/12 08:16:32;;;;;;;;;;;;;;;23.53;46.23;94822.69;5050824;28;7294;-61
2022/10/12 08:19:03;;;;;;;;;;;;;;;23.53;45.82;94820.69;5050691;28;7022;-61
2022/10/12 08:21:29;;;;;;;;;;;;;;;23.53;46.37;94826.16;5050653;28;9107;-61
2022/10/12 08:24:12;;;;;;;;;;;;;;;23.53;46.50;94817.94;5050221;28;7624;-61
2022/10/12 08:26:42;;;;;;;;;;;;;;;23.53;46.36;94822.69;5049968;28;9357;-61
2022/10/12 08:29:11;;;;;;;;;;;;;;;23.52;46.16;94816.44;5033201;28;7269;-61
2022/10/12 08:31:40;;;;;;;;;;;;;;;23.52;46.53;94832.16;5040562;28;7002;-61
2022/10/12 08:34:18;;;;;;;;;;;;;;;23.50;46.25;94820.91;5072678;28;7535;-61
2022/10/12 08:37:00;;;;;;;;;;;;;;;23.50;46.24;94809.94;5076456;28;7135;-61
2022/10/12 08:39:27;;;;;;;;;;;;;;;23.51;46.04;94822.44;5093194;28;7298;-61
2022/10/12 08:42:34;;;;;;;;;;;;;;;23.52;46.48;94818.44;5075796;28;7366;-61
2022/10/12 08:45:31;;;;;;;;;;;;;;;23.51;46.12;94825.91;5087634;28;7256;-61
2022/10/12 08:48:20;;;;;;;;;;;;;;;23.51;46.55;94819.69;5092365;28;7472;-61
2022/10/12 08:51:09;;;;;;;;;;;;;;;23.52;46.17;94826.66;5066968;28;8973;-61
2022/10/12 08:54:03;;;;;;;;;;;;;;;23.51;46.53;94825.16;5068766;28;7234;-61
2022/10/12 08:56:29;;;;;;;;;;;;;;;23.51;45.96;94825.91;5074537;28;7132;-61
2022/10/12 08:59:00;;;;;;;;;;;;;;;23.51;46.55;94823.16;5074056;28;7165;-61
2022/10/12 09:01:25;;;;;;;;;;;;;;;23.52;46.13;94827.41;5069677;28;7087;-61
2022/10/12 09:04:25;;;;;;;;;;;;;;;23.52;46.37;94821.94;5074264;28;7027;-61
2022/10/12 09:07:05;;;;;;;;;;;;;;;23.49;46.38;94816.69;5078517;28;7968;-61
2022/10/12 09:09:41;;;;;;;;;;;;;;;23.51;46.57;94828.66;5080054;28;7014;-60
2022/10/12 09:12:24;;;;;;;;;;;;;;;23.51;46.23;94820.41;5068651;28;7208;-60
2022/10/12 09:14:56;;;;;;;;;;;;;;;23.51;46.15;94825.91;5073267;28;7239;-60
2022/10/12 09:17:48;;;;;;;;;;;;;;;23.51;46.51;94822.44;5089813;28;7237;-61
2022/10/12 09:20:19;;;;;;;;;;;;;;;23.52;46.55;94821.19;5074382;28;8399;-61
2022/10/12 09:22:59;;;;;;;;;;;;;;;23.53;46.03;94822.69;5090377;28;9761;-61
2022/10/12 09:25:27;;;;;;;;;;;;;;;23.52;46.23;94829.41;5081149;28;7413;-61
2022/10/12 09:28:17;;;;;;;;;;;;;;;23.52;46.66;94830.16;5077805;28;7245;-60
2022/10/12 09:31:02;;;;;;;;;;;;;;;23.53;46.41;94826.16;5088864;28;6911;-61
2022/10/12 09:33:46;;;;;;;;;;;;;;;23.54;46.77;94826.94;5070896;28;9133;-61
2022/10/12 09:36:20;;;;;;;;;;;;;;;23.54;46.18;94829.66;5064959;28;7270;-60
2022/10/12 09:38:49;;;;;;;;;;;;;;;23.54;45.95;94829.66;5067776;28;9386;-61
2022/10/12 09:41:31;;;;;;;;;;;;;;;23.53;46.24;94839.16;5066743;28;9139;-61
2022/10/12 09:44:19;;;;;;;;;;;;;;;23.53;46.38;94839.16;5070591;28;7409;-61
2022/10/12 09:47:22;;;;;;;;;;;;;;;23.53;46.20;94839.16;5091694;28;7478;-61
2022/10/12 09:49:56;;;;;;;;;;;;;;;23.50;46.32;94838.13;5027185;28;7320;-61
2022/10/12 09:52:34;;;;;;;;;;;;;;;23.51;46.39;94838.91;5029374;28;8571;-61
2022/10/12 09:55:04;;;;;;;;;;;;;;;23.51;46.26;94836.16;5026951;28;7301;-61
2022/10/12 09:57:38;;;;;;;;;;;;;;;23.52;46.37;94834.91;5022765;28;9389;-61
2022/10/12 10:00:24;;;;;;;;;;;;;;;23.52;46.50;94826.66;5012412;28;7712;-61
2022/10/12 10:03:01;;;;;;;;;;;;;;;23.52;45.91;94832.16;5029434;28;9406;-60
2022/10/12 10:05:29;;;;;;;;;;;;;;;23.53;46.41;94828.19;5026960;28;7548;-61
2022/10/12 10:08:14;;;;;;;;;;;;;;;23.55;46.62;94831.19;5029315;28;7337;-60
2022/10/12 10:10:59;;;;;;;;;;;;;;;23.54;46.77;94830.44;5012844;28;7097;-60
2022/10/12 10:13:30;;;;;;;;;;;;;;;23.54;46.45;94822.19;5016316;28;7554;-61
2022/10/12 10:16:21;;;;;;;;;;;;;;;23.53;46.03;94823.41;5028567;28;7260;-61
2022/10/12 10:19:17;;;;;;;;;;;;;;;23.52;46.48;94818.44;5015820;28;7264;-60
2022/10/12 10:21:48;;;;;;;;;;;;;;;23.52;46.41;94821.94;5032600;28;7338;-60
2022/10/12 10:24:19;;;;;;;;;;;;;;;23.53;46.07;94825.44;4988030;28;7794;-61
2022/10/12 10:26:57;;;;;;;;;;;;;;;23.52;46.24;94810.94;5071671;28;7105;-61
2022/10/12 10:29:27;;;;;;;;;;;;;;;23.54;46.02;94824.19;5077069;28;9117;-61
2022/10/12 10:32:28;;;;;;;;;;;;;;;23.54;46.34;94819.44;5094746;28;7350;-60
2022/10/12 10:35:22;;;;;;;;;;;;;;;23.56;46.63;94821.69;4995453;28;7470;-60
2022/10/12 10:37:58;;;;;;;;;;;;;;;23.57;46.43;94820.47;5012666;28;10709;-61
2022/10/12 10:40:29;;;;;;;;;;;;;;;23.55;46.06;94826.47;5004292;28;9097;-61
2022/10/12 10:43:27;;;;;;;;;;;;;;;23.55;46.56;94831.94;5010082;28;7824;-60
2022/10/12 10:46:04;;;;;;;;;;;;;;;23.54;45.79;94827.69;4953942;28;9451;-61
2022/10/12 10:49:05;;;;;;;;;;;;;;;23.55;46.35;94825.69;4954414;28;7863;-60
2022/10/12 10:52:15;;;;;;;;;;;;;;;23.55;46.45;94814.72;4896898;29;9141;-61
2022/10/12 10:55:09;;;;;;;;;;;;;;;23.53;46.67;94817.94;4897108;29;7117;-61
2022/10/12 10:57:42;;;;;;;;;;;;;;;23.54;46.43;94819.44;4881445;29;9384;-60
2022/10/12 11:00:15;;;;;;;;;;;;;;;23.54;46.23;94819.44;4897115;29;7008;-61
2022/10/12 11:02:51;;;;;;;;;;;;;;;23.53;46.35;94806.94;4897393;29;7392;-61
2022/10/12 11:05:39;;;;;;;;;;;;;;;23.53;46.46;94812.44;4896940;29;7344;-61
2022/10/12 11:08:18;;;;;;;;;;;;;;;23.54;46.71;94807.72;4889335;29;9887;-61
2022/10/12 11:11:08;;;;;;;;;;;;;;;23.53;46.65;94820.69;4897148;29;7626;-61
2022/10/12 11:14:00;;;;;;;;;;;;;;;23.53;46.28;94814.47;4915314;29;7275;-61
2022/10/12 11:17:01;;;;;;;;;;;;;;;23.52;46.46;94810.19;4915914;29;9046;-61
2022/10/12 11:20:17;;;;;;;;;;;;;;;23.52;46.64;94819.19;4883301;29;8882;-61
2022/10/12 11:22:54;;;;;;;;;;;;;;;23.52;46.56;94808.19;4884121;29;7301;-61
2022/10/12 11:25:42;;;;;;;;;;;;;;;23.53;46.54;94812.44;4904602;29;8770;-61
2022/10/12 11:28:18;;;;;;;;;;;;;;;23.55;46.43;94812.72;4933158;28;9480;-61
2022/10/12 11:30:50;;;;;;;;;;;;;;;23.52;46.45;94816.44;4953454;28;7297;-61
2022/10/12 11:33:45;;;;;;;;;;;;;;;23.53;46.69;94806.94;4942625;28;8444;-61
2022/10/12 11:36:28;;;;;;;;;;;;;;;23.53;46.33;94806.94;4943658;28;7316;-61
2022/10/12 11:39:17;;;;;;;;;;;;;;;23.53;46.19;94808.97;4944697;28;7931;-61
2022/10/12 11:41:48;;;;;;;;;;;;;;;23.53;46.41;94811.72;4953359;28;7177;-60
2022/10/12 11:44:46;;;;;;;;;;;;;;;23.53;46.35;94806.22;4950254;28;7468;-61
2022/10/12 11:47:36;;;;;;;;;;;;;;;23.55;46.61;94803.75;4899303;29;7007;-61
2022/10/12 11:50:34;;;;;;;;;;;;;;;23.57;46.43;94801.25;4921443;29;9622;-61
2022/10/12 11:53:11;;;;;;;;;;;;;;;23.55;46.06;94809.22;4907630;29;9108;-60
2022/10/12 11:56:07;;;;;;;;;;;;;;;23.52;46.61;94799.97;4931076;29;7518;-61
2022/10/12 11:58:43;;;;;;;;;;;;;;;23.52;46.41;94793.72;4942468;28;7666;-61
2022/10/12 12:01:47;;;;;;;;;;;;;;;23.52;46.63;94799.22;4941668;28;9431;-61
2022/10/12 12:04:40;;;;;;;;;;;;;;;23.52;46.54;94794.47;4862147;29;8517;-61
2022/10/12 12:07:44;;;;;;;;;;;;;;;23.53;46.81;94793.22;4879212;29;8248;-61
2022/10/12 12:10:37;;;;;;;;;;;;;;;23.55;46.31;94795.50;4864921;29;7067;-61
2022/10/12 12:13:22;;;;;;;;;;;;;;;23.54;46.70;94785.75;4876885;29;7279;-61
2022/10/12 12:15:51;;;;;;;;;;;;;;;23.55;46.27;94781.78;4861029;29;7447;-61
2022/10/12 12:18:22;;;;;;;;;;;;;;;23.55;46.57;94787.25;4878602;29;9424;-61
2022/10/12 12:20:48;;;;;;;;;;;;;;;23.55;46.72;94787.25;4868448;29;7200;-61
2022/10/12 12:23:27;;;;;;;;;;;;;;;23.55;46.38;94777.03;4899340;28;9585;-61
2022/10/12 12:26:08;;;;;;;;;;;;;;;23.59;46.61;94779.56;4953606;28;9002;-61
2022/10/12 12:28:37;;;;;;;;;;;;;;;23.58;46.63;94780.78;4951668;28;7338;-61
2022/10/12 12:31:15;;;;;;;;;;;;;;;23.59;46.85;94777.56;4972273;28;6990;-61
2022/10/12 12:34:00;;;;;;;;;;;;;;;23.58;46.26;94780.78;4949098;28;7058;-61
2022/10/12 12:36:34;;;;;;;;;;;;;;;23.58;46.57;94786.28;4968065;28;8624;-60
2022/10/12 12:39:07;;;;;;;;;;;;;;;23.55;46.51;94776.28;4946183;28;7225;-60
2022/10/12 12:42:03;;;;;;;;;;;;;;;23.55;46.84;94782.53;5052548;28;9008;-61
2022/10/12 12:44:44;;;;;;;;;;;;;;;23.53;46.49;94782.25;4990527;28;7437;-61
2022/10/12 12:47:11;;;;;;;;;;;;;;;23.54;46.96;94783.75;4989726;28;7326;-61
2022/10/12 12:49:41;;;;;;;;;;;;;;;23.54;46.54;94772.03;4972869;28;9134;-61
2022/10/12 12:52:23;;;;;;;;;;;;;;;23.51;46.92;94781.97;4972217;28;7516;-61
2022/10/12 12:55:14;;;;;;;;;;;;;;;23.51;46.97;94781.25;4977695;28;7310;-60
2022/10/12 12:58:04;;;;;;;;;;;;;;;23.45;47.21;94777.69;4980016;28;6965;-61
2022/10/12 13:00:50;;;;;;;;;;;;;;;23.40;47.23;94775.66;4972987;28;7112;-61
2022/10/12 13:03:35;;;;;;;;;;;;;;;23.38;47.29;94780.88;4951639;28;7021;-61
2022/10/12 13:06:38;;;;;;;;;;;;;;;23.41;47.70;94772.44;4935743;28;7189;-60
2022/10/12 13:09:13;;;;;;;;;;;;;;;23.46;47.18;94770.97;4941554;28;7049;-61
2022/10/12 13:12:02;;;;;;;;;;;;;;;23.50;46.80;94780.50;4936177;28;8833;-61
2022/10/12 13:14:41;;;;;;;;;;;;;;;23.51;47.25;94776.47;4935520;29;8533;-61
2022/10/12 13:17:16;;;;;;;;;;;;;;;23.55;47.12;94781.78;4935921;28;7187;-61
2022/10/12 13:20:20;;;;;;;;;;;;;;;23.58;46.71;94778.78;4936205;28;7229;-61
2022/10/12 13:23:10;;;;;;;;;;;;;;;23.60;46.80;94779.06;4916846;29;10073;-61
2022/10/12 13:25:46;;;;;;;;;;;;;;;23.61;46.42;94774.31;4932990;29;9079;-60
2022/10/12 13:28:23;;;;;;;;;;;;;;;23.62;46.20;94767.59;4932754;29;8330;-61
2022/10/12 13:31:26;;;;;;;;;;;;;;;23.62;46.16;94765.59;4935048;29;7356;-61
2022/10/12 13:34:12;;;;;;;;;;;;;;;23.63;46.39;94763.59;4881805;29;7126;-60
2022/10/12 13:36:49;;;;;;;;;;;;;;;23.62;45.99;94770.34;4882704;29;7555;-61
2022/10/12 13:39:22;;;;;;;;;;;;;;;23.63;46.36;94769.09;4893774;29;7343;-61
2022/10/12 13:42:00;;;;;;;;;;;;;;;23.63;46.66;94760.84;4933420;28;7274;-60
2022/10/12 13:44:46;;;;;;;;;;;;;;;23.65;46.07;94758.38;4950555;28;7236;-61
2022/10/12 13:47:32;;;;;;;;;;;;;;;23.64;46.27;94751.38;4935301;28;7277;-61
2022/10/12 13:50:28;;;;;;;;;;;;;;;23.65;46.39;94752.88;4936658;28;7934;-61
2022/10/12 13:53:23;;;;;;;;;;;;;;;23.65;46.56;94752.88;4938638;28;8190;-61
2022/10/12 13:56:13;;;;;;;;;;;;;;;23.66;46.04;94757.16;4947396;28;7523;-61